Time;durP1;ratioP1;P1;durP2;ratioP2;P2;SDS_P1;SDS_P2;PMS_P1;PMS_P2;Temp;Humidity;BMP_temperature;BMP_pressure;BME280_temperature;BME280_humidity;BME280_pressure;Samples;Min_cycle;Max_cycle;Signal;HPM_P1;HPM_P2
2022/06/26 00:00:54;;;;;;;15.40;12.50;;;18.50;99.90;;;;;;4997979;28;20034;-65
2022/06/26 00:03:20;;;;;;;16.90;15.00;;;18.40;99.90;;;;;;5004046;28;20050;-66
2022/06/26 00:05:45;;;;;;;16.63;14.25;;;18.30;99.90;;;;;;5014069;28;20030;-65
2022/06/26 00:08:11;;;;;;;17.00;12.90;;;18.30;99.90;;;;;;4997793;28;20499;-65
2022/06/26 00:10:36;;;;;;;28.67;17.17;;;18.40;99.90;;;;;;5004119;28;20605;-65
2022/06/26 00:13:02;;;;;;;25.50;18.05;;;18.70;99.90;;;;;;4999130;28;20435;-65
2022/06/26 00:15:28;;;;;;;22.65;18.48;;;18.20;99.90;;;;;;5004758;28;20564;-65
2022/06/26 00:17:53;;;;;;;26.25;19.40;;;18.10;99.90;;;;;;5009836;28;20423;-65
2022/06/26 00:20:21;;;;;;;25.58;19.65;;;18.20;99.90;;;;;;5005450;28;20061;-65
2022/06/26 00:22:47;;;;;;;24.63;20.13;;;18.10;99.90;;;;;;4992969;28;20081;-65
2022/06/26 00:25:12;;;;;;;25.75;20.80;;;18.20;99.90;;;;;;4994097;28;20038;-65
2022/06/26 00:27:38;;;;;;;23.83;19.42;;;18.10;99.90;;;;;;5010935;28;20482;-65
2022/06/26 00:30:03;;;;;;;17.73;15.90;;;18.20;99.90;;;;;;5008037;28;20031;-65
2022/06/26 00:32:29;;;;;;;20.17;15.10;;;18.00;99.90;;;;;;5004081;28;20106;-65
2022/06/26 00:34:54;;;;;;;20.20;15.55;;;17.90;99.90;;;;;;5004620;28;20022;-65
2022/06/26 00:37:20;;;;;;;21.75;18.10;;;17.90;99.90;;;;;;5006914;28;20030;-66
2022/06/26 00:39:48;;;;;;;23.65;18.60;;;17.90;99.90;;;;;;5004852;28;20034;-66
2022/06/26 00:42:14;;;;;;;24.25;19.52;;;17.90;99.90;;;;;;5005685;28;20026;-67
2022/06/26 00:44:39;;;;;;;26.25;19.33;;;17.80;99.90;;;;;;4994434;28;20088;-66
2022/06/26 00:47:05;;;;;;;26.73;20.42;;;18.00;99.90;;;;;;4992340;28;20438;-66
2022/06/26 00:49:30;;;;;;;22.58;18.38;;;17.90;99.90;;;;;;4992253;28;20027;-67
2022/06/26 00:51:56;;;;;;;27.60;20.60;;;17.80;99.90;;;;;;5011587;28;20026;-67
2022/06/26 00:54:24;;;;;;;23.95;19.50;;;17.80;99.90;;;;;;5011519;28;20026;-67
2022/06/26 00:56:49;;;;;;;26.20;20.67;;;17.80;99.90;;;;;;5013899;28;20109;-67
2022/06/26 00:59:15;;;;;;;24.98;20.10;;;17.70;99.90;;;;;;4998228;28;20217;-66
2022/06/26 01:01:42;;;;;;;24.77;20.55;;;17.70;99.90;;;;;;5002868;28;20031;-66
2022/06/26 01:04:07;;;;;;;27.65;21.80;;;17.60;99.90;;;;;;4993768;28;20050;-66
2022/06/26 01:06:33;;;;;;;29.33;22.30;;;17.50;99.90;;;;;;4994042;28;20512;-66
2022/06/26 01:08:58;;;;;;;29.55;22.85;;;17.50;99.90;;;;;;4998839;28;20505;-65
2022/06/26 01:11:25;;;;;;;29.85;22.17;;;17.50;99.90;;;;;;5013677;28;20441;-65
2022/06/26 01:13:55;;;;;;;29.25;23.08;;;17.40;99.90;;;;;;5013556;28;20037;-65
2022/06/26 01:16:21;;;;;;;28.95;22.27;;;17.40;99.90;;;;;;5013341;28;20022;-65
2022/06/26 01:18:49;;;;;;;25.60;20.05;;;17.40;99.90;;;;;;5004440;28;20045;-66
2022/06/26 01:21:18;;;;;;;28.88;21.45;;;17.50;99.90;;;;;;5013092;28;20505;-66
2022/06/26 01:23:44;;;;;;;24.00;18.58;;;17.50;99.90;;;;;;5010560;28;20037;-66
2022/06/26 01:26:10;;;;;;;19.42;16.55;;;17.50;99.90;;;;;;5013271;28;20017;-67
2022/06/26 01:28:35;;;;;;;25.60;19.60;;;17.60;99.90;;;;;;4998596;28;20034;-66
2022/06/26 01:31:01;;;;;;;28.00;19.70;;;17.50;99.90;;;;;;4993476;28;20023;-67
2022/06/26 01:33:26;;;;;;;23.75;20.05;;;17.40;99.90;;;;;;4993474;28;20026;-66
2022/06/26 01:35:52;;;;;;;33.22;22.77;;;17.50;99.90;;;;;;5024714;28;20030;-66
2022/06/26 01:38:22;;;;;;;30.52;22.70;;;17.40;99.90;;;;;;4993325;28;20026;-67
2022/06/26 01:40:48;;;;;;;29.85;20.73;;;17.30;99.90;;;;;;4993861;28;20030;-66
2022/06/26 01:43:16;;;;;;;28.38;21.45;;;17.30;99.90;;;;;;4993387;28;20053;-66
2022/06/26 01:45:49;;;;;;;24.35;20.85;;;17.40;99.90;;;;;;5007910;28;20029;-66
2022/06/26 01:48:15;;;;;;;32.53;21.52;;;17.80;99.90;;;;;;5012647;28;20068;-66
2022/06/26 01:50:40;;;;;;;22.75;18.92;;;17.30;99.90;;;;;;5012523;28;20050;-66
2022/06/26 01:53:06;;;;;;;27.75;19.77;;;17.30;99.90;;;;;;5012934;28;20530;-66
2022/06/26 01:55:31;;;;;;;25.88;19.73;;;17.30;99.90;;;;;;5011474;28;20406;-66
2022/06/26 01:58:01;;;;;;;26.60;20.00;;;17.30;99.90;;;;;;5012952;28;20029;-66
2022/06/26 02:00:27;;;;;;;28.40;21.60;;;17.30;99.90;;;;;;5013072;28;20036;-66
2022/06/26 02:02:52;;;;;;;27.58;20.80;;;17.40;99.90;;;;;;4997850;28;20065;-66
2022/06/26 02:05:18;;;;;;;23.63;17.63;;;17.40;99.90;;;;;;5002413;28;20034;-66
2022/06/26 02:07:43;;;;;;;20.38;15.63;;;17.40;99.90;;;;;;5016881;28;20026;-66
2022/06/26 02:15:37;;;;;;;20.40;14.10;;;17.60;99.90;;;;;;4997412;28;20489;-68
2022/06/26 02:18:03;;;;;;;16.90;13.45;;;17.60;99.90;;;;;;5028722;28;20117;-68
2022/06/26 02:20:28;;;;;;;20.00;14.35;;;17.60;99.90;;;;;;4997147;28;20018;-68
2022/06/26 02:22:54;;;;;;;18.27;13.18;;;17.70;99.90;;;;;;4996545;28;20034;-68
2022/06/26 02:25:19;;;;;;;19.75;14.07;;;17.70;99.90;;;;;;4998051;28;20065;-68
2022/06/26 02:27:45;;;;;;;18.70;14.93;;;17.70;99.90;;;;;;4996899;28;20030;-68
2022/06/26 02:30:11;;;;;;;19.90;15.80;;;17.60;99.90;;;;;;4996886;28;20035;-68
2022/06/26 02:32:36;;;;;;;22.52;16.52;;;17.50;99.90;;;;;;4996571;28;20497;-67
2022/06/26 02:35:02;;;;;;;20.88;16.42;;;17.40;99.90;;;;;;5009092;28;20030;-68
2022/06/26 02:37:27;;;;;;;26.83;18.48;;;17.40;99.90;;;;;;5016474;28;20034;-67
2022/06/26 02:39:53;;;;;;;29.05;20.20;;;17.40;99.90;;;;;;5016399;28;20053;-67
2022/06/26 02:42:21;;;;;;;28.17;19.38;;;17.20;99.90;;;;;;5013872;28;20443;-68
2022/06/26 02:44:47;;;;;;;29.08;19.20;;;17.20;99.90;;;;;;4996460;28;20034;-68
2022/06/26 02:47:12;;;;;;;30.23;21.42;;;17.20;99.90;;;;;;5027940;28;20072;-68
2022/06/26 02:49:38;;;;;;;28.65;20.38;;;17.10;99.90;;;;;;4996346;28;20061;-68
2022/06/26 02:52:04;;;;;;;26.17;19.38;;;17.10;99.90;;;;;;5001572;28;20023;-68
2022/06/26 02:54:29;;;;;;;27.73;19.25;;;17.20;99.90;;;;;;5016315;28;20022;-67
2022/06/26 02:56:55;;;;;;;30.85;20.73;;;17.20;99.90;;;;;;5015750;28;20030;-68
2022/06/26 02:59:20;;;;;;;33.17;23.25;;;18.00;99.90;;;;;;5015927;28;20036;-68
2022/06/26 03:01:46;;;;;;;36.00;22.05;;;17.10;99.90;;;;;;5001565;28;20026;-68
2022/06/26 03:04:11;;;;;;;28.83;21.50;;;17.30;99.90;;;;;;5002310;28;20054;-68
2022/06/26 03:06:37;;;;;;;31.50;22.05;;;17.00;99.90;;;;;;4996111;28;20482;-68
2022/06/26 03:09:03;;;;;;;31.40;20.23;;;17.00;99.90;;;;;;4999141;28;20367;-68
2022/06/26 03:11:28;;;;;;;27.15;20.90;;;16.90;99.90;;;;;;5015644;28;20108;-68
2022/06/26 03:13:54;;;;;;;30.80;22.45;;;16.90;99.90;;;;;;5007966;28;20044;-68
2022/06/26 03:16:19;;;;;;;28.17;21.58;;;16.90;99.90;;;;;;5027220;28;20073;-68
2022/06/26 03:18:44;;;;;;;27.38;18.58;;;17.20;99.90;;;;;;4996072;28;20077;-67
2022/06/26 03:21:10;;;;;;;28.42;18.95;;;17.10;99.90;;;;;;5005081;28;20545;-67
2022/06/26 03:26:20;;;;;;;31.25;18.73;;;17.10;99.90;;;;;;4995775;28;20434;-67
2022/06/26 03:28:45;;;;;;;25.77;17.08;;;17.10;99.90;;;;;;5003788;28;20029;-67
2022/06/26 03:31:11;;;;;;;23.67;18.17;;;17.20;99.90;;;;;;5012913;28;20030;-68
2022/06/26 03:33:36;;;;;;;24.15;17.30;;;17.30;99.90;;;;;;4994368;28;20022;-68
2022/06/26 03:36:02;;;;;;;27.65;18.67;;;17.30;99.90;;;;;;4995091;28;20022;-68
2022/06/26 03:38:27;;;;;;;23.77;16.73;;;17.20;99.90;;;;;;4976108;28;20467;-68
2022/06/26 03:40:53;;;;;;;24.90;17.33;;;17.20;99.90;;;;;;4976270;28;20062;-67
2022/06/26 03:43:18;;;;;;;25.95;17.23;;;17.30;99.90;;;;;;4993924;28;20037;-68
2022/06/26 03:45:44;;;;;;;27.02;17.88;;;17.20;99.90;;;;;;4995486;28;20034;-67
2022/06/26 03:48:09;;;;;;;26.83;17.30;;;17.30;99.90;;;;;;4996298;28;20038;-68
2022/06/26 03:50:35;;;;;;;23.40;16.55;;;17.30;99.90;;;;;;4999174;28;20030;-68
2022/06/26 03:53:00;;;;;;;27.60;17.52;;;17.40;99.90;;;;;;4995441;28;20019;-68
2022/06/26 03:55:26;;;;;;;24.17;17.48;;;17.30;99.90;;;;;;4995314;28;20022;-68
2022/06/26 03:57:51;;;;;;;27.60;18.45;;;17.30;99.90;;;;;;5026149;28;20415;-68
2022/06/26 04:00:17;;;;;;;22.67;16.42;;;17.30;99.90;;;;;;5026720;28;20118;-67
2022/06/26 04:02:43;;;;;;;22.40;15.88;;;17.30;99.90;;;;;;4995827;28;20022;-67
2022/06/26 04:05:08;;;;;;;24.13;16.02;;;17.30;99.90;;;;;;5014439;28;20050;-66
2022/06/26 04:07:34;;;;;;;27.15;17.45;;;17.40;99.90;;;;;;5014649;28;20108;-67
2022/06/26 04:09:59;;;;;;;27.00;16.50;;;17.40;99.90;;;;;;5014705;28;20022;-67
2022/06/26 04:12:25;;;;;;;19.52;15.73;;;17.70;99.90;;;;;;5008997;28;20021;-67
2022/06/26 04:14:50;;;;;;;20.42;16.38;;;17.50;99.90;;;;;;5014601;28;20026;-67
2022/06/26 04:17:16;;;;;;;22.15;16.02;;;17.40;99.90;;;;;;5014390;28;20363;-67
2022/06/26 04:19:41;;;;;;;26.20;16.67;;;17.40;99.90;;;;;;5012813;28;20045;-67
2022/06/26 04:22:07;;;;;;;19.75;15.52;;;17.30;99.90;;;;;;5014392;28;20022;-67
2022/06/26 04:24:32;;;;;;;19.92;13.80;;;17.40;99.90;;;;;;5014247;28;20032;-67
2022/06/26 04:26:58;;;;;;;25.90;13.40;;;17.30;99.90;;;;;;4998532;28;20041;-67
2022/06/26 04:29:23;;;;;;;18.35;11.50;;;17.20;99.90;;;;;;4995593;28;20022;-67
2022/06/26 04:31:49;;;;;;;14.45;11.32;;;17.20;99.90;;;;;;4994747;28;20029;-67
2022/06/26 04:34:14;;;;;;;18.20;10.75;;;17.20;99.90;;;;;;4994472;28;20062;-67
2022/06/26 04:36:40;;;;;;;17.60;9.55;;;17.20;99.90;;;;;;4996172;28;20034;-67
2022/06/26 04:39:05;;;;;;;11.55;8.32;;;17.30;99.90;;;;;;4994268;28;20049;-67
2022/06/26 04:41:31;;;;;;;20.60;9.90;;;17.30;99.90;;;;;;4994326;28;20023;-67
2022/06/26 04:43:57;;;;;;;14.95;8.80;;;17.10;99.90;;;;;;4993311;28;20022;-67
2022/06/26 04:46:22;;;;;;;14.90;7.80;;;17.10;99.90;;;;;;4994257;28;20149;-68
2022/06/26 04:48:48;;;;;;;18.40;9.18;;;17.20;99.90;;;;;;5025386;28;20430;-67
2022/06/26 04:51:13;;;;;;;12.75;7.35;;;17.20;99.90;;;;;;4993550;28;20031;-67
2022/06/26 04:53:39;;;;;;;15.57;7.78;;;17.00;99.90;;;;;;5005211;28;20029;-67
2022/06/26 04:56:05;;;;;;;11.98;5.28;;;17.00;99.90;;;;;;5013436;28;20026;-67
2022/06/26 04:58:30;;;;;;;8.75;4.88;;;17.00;99.90;;;;;;5006047;28;20042;-67
2022/06/26 05:00:56;;;;;;;7.60;3.67;;;16.90;99.90;;;;;;4994177;28;20483;-67
2022/06/26 05:03:21;;;;;;;6.55;3.20;;;16.90;99.90;;;;;;4998364;28;20545;-66
2022/06/26 05:05:47;;;;;;;8.18;3.40;;;16.80;99.90;;;;;;5003756;28;20125;-66
2022/06/26 05:08:12;;;;;;;10.65;3.92;;;16.80;99.90;;;;;;4993675;28;20054;-67
2022/06/26 05:10:38;;;;;;;18.45;5.40;;;16.70;99.90;;;;;;4993970;28;20073;-67
2022/06/26 05:13:03;;;;;;;39.17;10.15;;;16.60;99.90;;;;;;4995255;28;20084;-67
2022/06/26 05:15:29;;;;;;;19.67;5.88;;;16.60;99.90;;;;;;4993633;28;20025;-67
2022/06/26 05:17:54;;;;;;;20.85;6.70;;;16.60;99.90;;;;;;4993970;28;20033;-67
2022/06/26 05:20:20;;;;;;;24.85;8.45;;;16.60;99.90;;;;;;5001441;28;20390;-68
2022/06/26 05:22:45;;;;;;;29.83;7.45;;;16.80;99.90;;;;;;5004513;28;20475;-68
2022/06/26 05:25:11;;;;;;;12.52;3.78;;;17.30;99.90;;;;;;4993440;28;20034;-68
2022/06/26 05:27:36;;;;;;;20.65;6.78;;;17.70;99.90;;;;;;4992282;28;20022;-67
2022/06/26 05:30:03;;;;;;;7.18;3.40;;;17.70;99.90;;;;;;5007035;28;20025;-68
2022/06/26 05:32:29;;;;;;;9.00;3.03;;;17.80;99.90;;;;;;5002993;28;20057;-67
2022/06/26 05:34:54;;;;;;;9.50;4.00;;;18.00;99.90;;;;;;4993410;28;20483;-68
2022/06/26 05:37:20;;;;;;;12.52;4.28;;;18.50;99.90;;;;;;4991702;28;20038;-68
2022/06/26 05:39:45;;;;;;;10.93;4.03;;;18.40;99.90;;;;;;5002931;28;20033;-68
2022/06/26 05:42:11;;;;;;;8.15;3.58;;;18.50;99.90;;;;;;5013140;28;20040;-68
2022/06/26 05:44:36;;;;;;;11.38;3.83;;;18.40;99.90;;;;;;5003649;28;20034;-67
2022/06/26 05:47:03;;;;;;;6.97;3.13;;;18.20;99.90;;;;;;4993475;28;20113;-67
2022/06/26 05:49:28;;;;;;;12.32;3.13;;;18.00;99.90;;;;;;4994291;28;20398;-69
2022/06/26 05:51:54;;;;;;;7.47;2.72;;;17.80;99.90;;;;;;4993436;28;20102;-68
2022/06/26 05:54:19;;;;;;;9.95;4.53;;;17.80;99.90;;;;;;5000690;28;20101;-68
2022/06/26 05:56:45;;;;;;;8.52;3.50;;;17.70;99.90;;;;;;4993400;28;20526;-68
2022/06/26 05:59:10;;;;;;;9.27;3.55;;;17.70;99.90;;;;;;4995970;28;20018;-68
2022/06/26 06:01:36;;;;;;;4.93;3.33;;;17.80;99.90;;;;;;4993345;28;20482;-68
2022/06/26 06:04:02;;;;;;;10.88;3.90;;;17.70;99.90;;;;;;4992925;28;20050;-68
2022/06/26 06:06:28;;;;;;;11.52;4.25;;;17.50;99.90;;;;;;4993328;28;20034;-68
2022/06/26 06:08:53;;;;;;;14.13;4.63;;;17.60;99.90;;;;;;4999022;28;20431;-68
2022/06/26 06:11:19;;;;;;;13.57;4.53;;;17.40;99.90;;;;;;5006433;28;20029;-68
2022/06/26 06:13:44;;;;;;;7.85;3.70;;;17.40;99.90;;;;;;4993407;28;20022;-68
2022/06/26 06:16:10;;;;;;;6.97;3.70;;;17.50;99.90;;;;;;4993215;28;20026;-68
2022/06/26 06:18:36;;;;;;;16.13;5.07;;;17.70;99.90;;;;;;5009642;28;20030;-68
2022/06/26 06:21:01;;;;;;;10.63;4.68;;;17.70;99.90;;;;;;5008976;28;20042;-68
2022/06/26 06:23:27;;;;;;;14.70;4.97;;;17.40;99.90;;;;;;4993113;28;20030;-67
2022/06/26 06:25:52;;;;;;;20.73;5.72;;;17.40;99.90;;;;;;5012036;28;20487;-68
2022/06/26 06:28:18;;;;;;;10.05;3.83;;;17.80;99.90;;;;;;5003122;28;20027;-68
2022/06/26 06:30:44;;;;;;;9.38;3.65;;;18.20;99.90;;;;;;4992993;28;20402;-68
2022/06/26 06:33:09;;;;;;;16.10;5.13;;;18.90;99.90;;;;;;4993110;28;20023;-68
2022/06/26 06:35:36;;;;;;;11.05;4.80;;;19.40;99.90;;;;;;5003615;28;20060;-68
2022/06/26 06:38:01;;;;;;;8.15;3.88;;;19.50;99.90;;;;;;4992806;28;20026;-68
2022/06/26 06:40:27;;;;;;;8.68;3.72;;;19.60;99.90;;;;;;4998665;28;20095;-68
2022/06/26 06:42:52;;;;;;;13.20;4.95;;;20.70;99.90;;;;;;5012508;28;20022;-68
2022/06/26 06:45:18;;;;;;;11.35;4.93;;;20.10;99.90;;;;;;5011059;28;20018;-68
2022/06/26 06:47:43;;;;;;;8.27;4.18;;;20.40;99.90;;;;;;5012418;28;20030;-68
2022/06/26 06:50:09;;;;;;;15.88;5.78;;;21.00;99.90;;;;;;4996969;28;20030;-69
2022/06/26 06:52:34;;;;;;;9.77;3.80;;;22.10;97.90;;;;;;4996203;28;20060;-68
2022/06/26 06:55:00;;;;;;;8.13;3.47;;;22.60;97.50;;;;;;4996596;28;20491;-69
2022/06/26 06:57:26;;;;;;;10.25;3.00;;;22.70;97.10;;;;;;4996357;28;20368;-69
2022/06/26 06:59:51;;;;;;;5.13;2.80;;;22.40;96.20;;;;;;5005434;28;20038;-69
2022/06/26 07:02:17;;;;;;;4.70;2.50;;;22.50;95.50;;;;;;5005021;28;20525;-71
2022/06/26 07:04:42;;;;;;;8.32;4.18;;;22.80;96.00;;;;;;5002294;28;20081;-72
2022/06/26 07:07:08;;;;;;;9.20;2.90;;;22.90;95.50;;;;;;5027341;28;20022;-72
2022/06/26 07:09:33;;;;;;;10.48;4.95;;;22.40;96.90;;;;;;4997076;28;20386;-72
2022/06/26 07:11:59;;;;;;;7.07;2.35;;;21.70;98.20;;;;;;4994772;28;20463;-71
2022/06/26 07:14:25;;;;;;;9.07;3.28;;;21.10;99.30;;;;;;5027336;28;20033;-72
2022/06/26 07:16:50;;;;;;;5.65;3.17;;;21.00;98.50;;;;;;4996079;28;20451;-72
2022/06/26 07:19:16;;;;;;;10.65;3.13;;;21.70;97.70;;;;;;4995428;28;20544;-70
2022/06/26 07:21:43;;;;;;;4.13;2.20;;;22.40;96.50;;;;;;4994356;28;20030;-70
2022/06/26 07:24:09;;;;;;;6.93;3.22;;;22.90;94.90;;;;;;4993332;28;20035;-71
2022/06/26 07:26:35;;;;;;;9.02;3.28;;;23.00;93.20;;;;;;5010012;28;20483;-71
2022/06/26 07:29:01;;;;;;;5.60;2.97;;;22.30;94.50;;;;;;4994324;28;20026;-70
2022/06/26 07:31:26;;;;;;;5.78;2.75;;;23.90;92.40;;;;;;5026949;28;20026;-70
2022/06/26 07:36:36;;;;;;;8.10;2.50;;;23.80;90.70;;;;;;4996486;28;20041;-71
2022/06/26 07:39:01;;;;;;;4.75;2.58;;;24.40;86.60;;;;;;5026411;28;20031;-70
2022/06/26 07:41:27;;;;;;;7.15;3.13;;;24.60;83.70;;;;;;5005616;28;20026;-70
2022/06/26 07:43:52;;;;;;;10.90;3.20;;;24.60;84.20;;;;;;5009211;28;20030;-71
2022/06/26 07:46:18;;;;;;;7.05;2.70;;;24.40;85.70;;;;;;5010228;28;20058;-71
2022/06/26 07:48:43;;;;;;;5.13;2.28;;;24.70;85.20;;;;;;5009066;28;20117;-70
2022/06/26 07:51:09;;;;;;;5.13;2.10;;;25.30;81.00;;;;;;5008540;28;20484;-70
2022/06/26 07:53:36;;;;;;;8.55;2.63;;;24.60;84.00;;;;;;5013624;28;20103;-70
2022/06/26 07:56:02;;;;;;;6.13;2.20;;;23.20;88.60;;;;;;4997966;28;20022;-69
2022/06/26 07:58:28;;;;;;;3.95;2.67;;;23.40;90.00;;;;;;4994813;28;20471;-68
2022/06/26 08:00:53;;;;;;;14.75;4.47;;;22.10;93.10;;;;;;5001809;28;20037;-70
2022/06/26 08:03:19;;;;;;;6.25;1.88;;;23.10;92.10;;;;;;5004908;28;20089;-69
2022/06/26 08:05:46;;;;;;;7.28;2.90;;;23.70;88.90;;;;;;4993733;28;20061;-69
2022/06/26 08:08:12;;;;;;;4.25;2.08;;;24.30;83.30;;;;;;5002472;28;20034;-70
2022/06/26 08:10:37;;;;;;;8.63;2.65;;;23.80;86.70;;;;;;5011074;28;20026;-70
2022/06/26 08:13:04;;;;;;;4.35;2.20;;;23.10;90.20;;;;;;4995462;28;20521;-70
2022/06/26 08:15:29;;;;;;;4.82;2.50;;;22.70;91.80;;;;;;5007334;28;20029;-69
2022/06/26 08:17:55;;;;;;;5.57;2.40;;;22.70;92.10;;;;;;4994938;28;20026;-69
2022/06/26 08:20:20;;;;;;;7.03;2.00;;;22.30;93.00;;;;;;4994549;28;20030;-70
2022/06/26 08:22:46;;;;;;;7.72;2.80;;;22.50;92.40;;;;;;4993662;28;20073;-70
2022/06/26 08:25:11;;;;;;;5.63;2.33;;;22.40;93.10;;;;;;4994203;28;20121;-70
2022/06/26 08:27:37;;;;;;;6.57;2.38;;;22.80;92.10;;;;;;4998086;28;20112;-70
2022/06/26 08:30:03;;;;;;;4.20;2.22;;;24.00;92.00;;;;;;4994663;28;20039;-71
2022/06/26 08:32:28;;;;;;;8.95;3.00;;;24.80;86.90;;;;;;4994181;28;20033;-70
2022/06/26 08:34:54;;;;;;;3.38;1.63;;;25.10;83.40;;;;;;5007529;28;20030;-70
2022/06/26 08:37:19;;;;;;;8.40;2.90;;;24.90;81.70;;;;;;5008028;28;20475;-70
2022/06/26 08:39:45;;;;;;;10.88;2.67;;;24.70;80.70;;;;;;4994322;28;20030;-70
2022/06/26 08:42:11;;;;;;;4.28;1.63;;;25.80;83.90;;;;;;4995479;28;20029;-70
2022/06/26 08:44:43;;;;;;;6.32;2.58;;;26.60;70.50;;;;;;4993904;28;20026;-70
2022/06/26 08:47:12;;;;;;;6.18;2.17;;;25.40;74.90;;;;;;4993766;28;20088;-68
2022/06/26 08:49:38;;;;;;;4.05;1.63;;;24.60;77.50;;;;;;4993605;28;20168;-70
2022/06/26 08:52:04;;;;;;;6.07;2.00;;;23.20;83.80;;;;;;5006700;28;20025;-69
2022/06/26 08:54:30;;;;;;;17.20;5.15;;;22.70;88.40;;;;;;4998783;28;20534;-70
2022/06/26 08:56:56;;;;;;;4.38;1.60;;;22.70;90.20;;;;;;4994246;28;20117;-70
2022/06/26 08:59:21;;;;;;;7.15;1.90;;;22.80;88.20;;;;;;4982189;28;20121;-72
2022/06/26 09:01:47;;;;;;;6.43;2.10;;;23.60;85.30;;;;;;4986967;28;20049;-70
2022/06/26 09:04:13;;;;;;;25.98;6.68;;;23.00;88.00;;;;;;5005380;28;20054;-70
2022/06/26 09:06:39;;;;;;;7.40;2.95;;;23.70;88.60;;;;;;5013317;28;20504;-71
2022/06/26 09:09:24;;;;;;;11.88;3.97;;;25.30;78.50;;;;;;5003969;28;20032;-70
2022/06/26 09:11:57;;;;;;;18.83;4.85;;;25.50;75.00;;;;;;4995446;28;20505;-70
2022/06/26 09:14:23;;;;;;;13.90;5.43;;;25.40;72.80;;;;;;5000002;28;20041;-70
2022/06/26 09:16:49;;;;;;;21.67;4.88;;;24.50;74.40;;;;;;5007924;28;20019;-69
2022/06/26 09:19:20;;;;;;;14.15;3.90;;;25.10;76.60;;;;;;4993768;28;20423;-70
2022/06/26 09:21:49;;;;;;;5.90;2.20;;;25.00;77.90;;;;;;4998028;28;20038;-72
2022/06/26 09:24:16;;;;;;;8.18;2.35;;;24.20;75.40;;;;;;4993828;28;20022;-69
2022/06/26 09:26:43;;;;;;;4.45;1.65;;;25.20;71.70;;;;;;5001552;28;20045;-69
2022/06/26 09:29:15;;;;;;;3.35;1.55;;;25.60;65.90;;;;;;4996787;28;20034;-68
2022/06/26 09:31:41;;;;;;;5.93;1.65;;;26.90;66.40;;;;;;5033133;28;20022;-69
2022/06/26 09:34:07;;;;;;;10.48;2.90;;;26.50;59.70;;;;;;4999300;28;20105;-70
2022/06/26 09:36:33;;;;;;;2.65;1.45;;;27.70;56.60;;;;;;4999490;28;20047;-68
2022/06/26 09:38:58;;;;;;;4.38;1.63;;;27.20;57.70;;;;;;4995906;28;20037;-68
2022/06/26 09:41:31;;;;;;;3.53;1.52;;;26.20;58.50;;;;;;5010250;28;20034;-69
2022/06/26 09:43:57;;;;;;;12.30;2.75;;;25.70;63.70;;;;;;5001222;28;20057;-69
2022/06/26 09:46:30;;;;;;;6.88;2.28;;;25.50;67.50;;;;;;4993398;28;20063;-70
2022/06/26 09:48:57;;;;;;;10.75;3.08;;;25.60;65.60;;;;;;5000267;28;20026;-69
2022/06/26 09:51:23;;;;;;;4.88;1.65;;;24.30;66.00;;;;;;5002390;28;20061;-69
2022/06/26 09:53:48;;;;;;;5.90;2.38;;;25.40;66.30;;;;;;5006246;28;20037;-70
2022/06/26 09:56:14;;;;;;;17.55;4.07;;;26.80;66.00;;;;;;4999903;28;20101;-69
2022/06/26 09:58:39;;;;;;;4.68;1.75;;;26.90;62.60;;;;;;5000093;28;20398;-69
2022/06/26 10:06:33;;;;;;;5.30;1.75;;;27.00;59.30;;;;;;5019116;28;20049;-69
2022/06/26 10:09:00;;;;;;;7.35;2.00;;;27.50;58.60;;;;;;4992827;28;20118;-69
2022/06/26 10:11:27;;;;;;;2.63;1.65;;;26.70;60.20;;;;;;4992805;28;20114;-69
2022/06/26 10:13:58;;;;;;;6.15;2.33;;;26.90;60.40;;;;;;4992924;28;20022;-69
2022/06/26 10:16:33;;;;;;;4.53;1.40;;;25.70;61.20;;;;;;5023320;28;20057;-68
2022/06/26 10:19:18;;;;;;;5.50;2.45;;;25.40;61.70;;;;;;4992870;28;20022;-68
2022/06/26 10:21:44;;;;;;;;;;;25.30;64.10;;;;;;5007739;28;20026;-68
2022/06/26 10:24:09;;;;;;;4.35;1.58;;;25.60;62.20;;;;;;4993471;28;20278;-68
2022/06/26 10:26:35;;;;;;;4.63;2.10;;;24.80;63.50;;;;;;4996543;28;20026;-68
2022/06/26 10:29:02;;;;;;;3.75;1.63;;;24.70;64.00;;;;;;4996147;28;20040;-66
2022/06/26 10:31:47;;;;;;;6.88;1.85;;;24.30;65.70;;;;;;5028037;28;20035;-66
2022/06/26 10:34:19;;;;;;;10.18;2.38;;;23.70;69.00;;;;;;4996598;28;20027;-67
2022/06/26 10:37:03;;;;;;;4.20;1.50;;;24.20;68.40;;;;;;4996325;28;20023;-68
2022/06/26 10:39:56;;;;;;;3.80;1.45;;;23.80;64.00;;;;;;5023375;28;20022;-69
2022/06/26 10:45:19;;;;;;;5.25;1.70;;;23.50;65.60;;;;;;5023204;28;20118;-65
2022/06/26 10:47:48;;;;;;;2.85;1.38;;;22.90;67.70;;;;;;4996075;28;20108;-66
2022/06/26 10:50:33;;;;;;;3.35;1.50;;;23.50;67.00;;;;;;4995973;28;20116;-67
2022/06/26 10:53:17;;;;;;;;;;;24.60;63.30;;;;;;5004057;28;20018;-66
2022/06/26 10:55:47;;;;;;;3.15;1.67;;;25.00;63.40;;;;;;4995574;28;20353;-66
2022/06/26 10:58:18;;;;;;;3.92;1.60;;;24.70;60.80;;;;;;5009032;28;20120;-66
2022/06/26 11:00:44;;;;;;;4.90;1.40;;;24.60;60.40;;;;;;5014703;28;20033;-66
2022/06/26 11:03:14;;;;;;;2.97;1.55;;;24.40;61.00;;;;;;5027427;28;20561;-68
2022/06/26 11:05:53;;;;;;;12.18;3.15;;;24.60;61.90;;;;;;4995798;28;20538;-68
2022/06/26 11:08:30;;;;;;;6.90;2.08;;;24.50;67.10;;;;;;4995719;28;20026;-68
2022/06/26 11:11:04;;;;;;;1.98;1.33;;;24.60;67.80;;;;;;4988294;28;20037;-68
2022/06/26 11:13:30;;;;;;;4.90;1.35;;;23.80;67.00;;;;;;4981393;28;20030;-68
2022/06/26 11:15:55;;;;;;;9.30;2.22;;;23.60;70.20;;;;;;4995304;28;20030;-68
2022/06/26 11:18:21;;;;;;;6.57;2.10;;;23.70;68.60;;;;;;4994272;28;20030;-69
2022/06/26 11:20:51;;;;;;;2.33;1.45;;;23.50;68.60;;;;;;5004610;28;20021;-67
2022/06/26 11:23:35;;;;;;;10.00;2.22;;;23.90;70.40;;;;;;5014090;28;20034;-68
2022/06/26 11:26:01;;;;;;;6.57;1.60;;;23.50;70.10;;;;;;5014901;28;20022;-68
2022/06/26 11:28:40;;;;;;;5.40;1.73;;;23.20;71.10;;;;;;5006303;28;20766;-68
2022/06/26 11:31:11;;;;;;;7.75;2.20;;;23.50;74.40;;;;;;4987751;28;20046;-68
2022/06/26 11:33:37;;;;;;;6.20;1.90;;;23.10;74.10;;;;;;4995058;28;20376;-68
2022/06/26 11:36:07;;;;;;;17.45;4.05;;;23.50;74.40;;;;;;4995145;28;20025;-67
2022/06/26 11:38:33;;;;;;;5.15;2.22;;;22.80;77.00;;;;;;4993811;28;20045;-66
2022/06/26 11:41:00;;;;;;;3.38;1.60;;;22.50;80.20;;;;;;4995137;28;20030;-68
2022/06/26 11:43:25;;;;;;;4.20;1.85;;;22.80;85.10;;;;;;4993691;28;20034;-68
2022/06/26 11:45:51;;;;;;;6.00;1.70;;;23.20;80.10;;;;;;4994787;28;20030;-67
2022/06/26 11:48:17;;;;;;;5.28;1.95;;;23.00;82.40;;;;;;5025714;28;20450;-67
2022/06/26 11:50:44;;;;;;;19.38;4.38;;;23.30;82.90;;;;;;5025534;28;20058;-68
2022/06/26 11:53:09;;;;;;;39.35;6.70;;;22.60;85.50;;;;;;5001789;28;20084;-68
2022/06/26 11:55:45;;;;;;;19.77;4.63;;;22.60;90.00;;;;;;5005480;28;20027;-68
2022/06/26 11:58:10;;;;;;;6.88;2.70;;;22.20;90.90;;;;;;5010215;28;20435;-74
2022/06/26 12:00:37;;;;;;;8.80;2.97;;;22.20;91.40;;;;;;5005925;28;20115;-68
2022/06/26 12:03:03;;;;;;;16.27;3.25;;;21.80;92.60;;;;;;4974834;28;20058;-68
2022/06/26 12:05:30;;;;;;;11.93;2.83;;;21.80;94.50;;;;;;4975026;28;20061;-67
2022/06/26 12:07:55;;;;;;;11.20;3.25;;;21.60;95.90;;;;;;4974860;28;20027;-68
2022/06/26 12:10:35;;;;;;;6.70;2.22;;;21.40;97.00;;;;;;4975026;28;20019;-68
2022/06/26 12:13:01;;;;;;;15.10;3.38;;;20.90;96.70;;;;;;4974966;28;20030;-68
2022/06/26 12:15:27;;;;;;;16.50;5.57;;;21.40;97.20;;;;;;4974832;28;20494;-67
2022/06/26 12:17:54;;;;;;;26.10;7.10;;;21.90;96.50;;;;;;5005798;28;20023;-67
2022/06/26 12:20:19;;;;;;;22.95;6.05;;;21.70;97.00;;;;;;4991761;28;20031;-67
2022/06/26 12:22:53;;;;;;;18.15;6.30;;;21.60;97.30;;;;;;4993375;28;20027;-67
2022/06/26 12:25:25;;;;;;;8.52;3.55;;;21.40;95.20;;;;;;4994246;28;20175;-66
2022/06/26 12:27:50;;;;;;;6.03;2.42;;;22.00;95.40;;;;;;4993129;28;20098;-67
2022/06/26 12:30:25;;;;;;;8.27;2.45;;;21.90;94.10;;;;;;4993283;28;20426;-66
2022/06/26 12:32:50;;;;;;;5.82;2.10;;;22.00;95.00;;;;;;5010127;28;20068;-68
2022/06/26 12:35:16;;;;;;;6.70;2.20;;;22.20;93.90;;;;;;5009905;28;20042;-67
2022/06/26 12:40:48;;;;;;;11.35;3.05;;;22.20;94.20;;;;;;4990415;28;20395;-67
2022/06/26 12:43:14;;;;;;;6.25;2.15;;;22.40;93.40;;;;;;4993815;28;20026;-68
2022/06/26 12:45:39;;;;;;;7.03;2.95;;;22.70;93.30;;;;;;4992552;28;20022;-67
2022/06/26 12:48:05;;;;;;;8.80;2.00;;;22.40;92.10;;;;;;4992711;28;20026;-67
2022/06/26 12:50:31;;;;;;;8.95;2.85;;;22.80;93.80;;;;;;4993120;28;20022;-67
2022/06/26 12:52:57;;;;;;;8.45;2.80;;;22.60;94.10;;;;;;5034182;28;20434;-67
2022/06/26 12:56:01;;;;;;;4.32;1.95;;;22.50;92.50;;;;;;4989191;28;20475;-67
2022/06/26 12:58:27;;;;;;;4.22;2.30;;;22.40;93.30;;;;;;4998844;28;20029;-67